sensor_id;sensor_type;location;lat;lon;timestamp;temperature;humidity
12374;DHT22;6251;51.762;8.660;2024-02-21T00:00:23;7.60;99.90
12374;DHT22;6251;51.762;8.660;2024-02-21T00:10:24;7.60;99.90
12374;DHT22;6251;51.762;8.660;2024-02-21T02:02:08;7.80;99.90
12374;DHT22;6251;51.762;8.660;2024-02-21T02:12:09;7.90;99.90
12374;DHT22;6251;51.762;8.660;2024-02-21T03:53:43;7.90;99.90
12374;DHT22;6251;51.762;8.660;2024-02-21T05:05:40;7.80;99.90
12374;DHT22;6251;51.762;8.660;2024-02-21T05:15:41;7.80;99.90
12374;DHT22;6251;51.762;8.660;2024-02-21T05:25:41;7.70;99.90
12374;DHT22;6251;51.762;8.660;2024-02-21T05:35:42;7.70;99.90
12374;DHT22;6251;51.762;8.660;2024-02-21T05:45:42;7.70;99.90
12374;DHT22;6251;51.762;8.660;2024-02-21T05:55:43;7.70;99.90
12374;DHT22;6251;51.762;8.660;2024-02-21T06:05:44;7.70;99.90
12374;DHT22;6251;51.762;8.660;2024-02-21T06:15:44;7.70;99.90
12374;DHT22;6251;51.762;8.660;2024-02-21T06:25:45;7.70;99.90
12374;DHT22;6251;51.762;8.660;2024-02-21T06:35:46;7.70;99.90
12374;DHT22;6251;51.762;8.660;2024-02-21T06:45:48;7.80;99.90
12374;DHT22;6251;51.762;8.660;2024-02-21T06:55:51;7.80;99.90
12374;DHT22;6251;51.762;8.660;2024-02-21T07:05:51;7.80;99.90
12374;DHT22;6251;51.762;8.660;2024-02-21T07:15:52;7.80;99.90
12374;DHT22;6251;51.762;8.660;2024-02-21T07:25:52;7.90;99.90
12374;DHT22;6251;51.762;8.660;2024-02-21T07:35:53;8.00;99.90
12374;DHT22;6251;51.762;8.660;2024-02-21T07:45:53;8.10;99.90
12374;DHT22;6251;51.762;8.660;2024-02-21T07:55:54;8.30;99.90
12374;DHT22;6251;51.762;8.660;2024-02-21T08:05:55;8.40;99.90
12374;DHT22;6251;51.762;8.660;2024-02-21T08:15:55;8.50;99.90
12374;DHT22;6251;51.762;8.660;2024-02-21T08:25:57;8.60;99.90
12374;DHT22;6251;51.762;8.660;2024-02-21T08:35:58;8.70;99.90
12374;DHT22;6251;51.762;8.660;2024-02-21T08:45:58;8.70;99.90
12374;DHT22;6251;51.762;8.660;2024-02-21T08:55:59;8.90;99.90
12374;DHT22;6251;51.762;8.660;2024-02-21T09:06:00;9.10;99.90
12374;DHT22;6251;51.762;8.660;2024-02-21T09:16:00;9.20;99.90
12374;DHT22;6251;51.762;8.660;2024-02-21T09:26:01;9.20;99.90
12374;DHT22;6251;51.762;8.660;2024-02-21T09:36:04;9.40;99.90
12374;DHT22;6251;51.762;8.660;2024-02-21T09:46:07;9.50;99.90
12374;DHT22;6251;51.762;8.660;2024-02-21T09:56:10;9.70;99.90
12374;DHT22;6251;51.762;8.660;2024-02-21T10:06:11;9.80;99.90
12374;DHT22;6251;51.762;8.660;2024-02-21T10:16:12;9.90;99.90
12374;DHT22;6251;51.762;8.660;2024-02-21T10:26:13;10.10;99.90
12374;DHT22;6251;51.762;8.660;2024-02-21T10:36:13;10.20;99.90
12374;DHT22;6251;51.762;8.660;2024-02-21T10:46:15;10.30;99.90
12374;DHT22;6251;51.762;8.660;2024-02-21T10:56:32;10.40;99.90
12374;DHT22;6251;51.762;8.660;2024-02-21T11:06:38;10.50;99.90
12374;DHT22;6251;51.762;8.660;2024-02-21T11:16:41;10.50;99.90
12374;DHT22;6251;51.762;8.660;2024-02-21T11:26:42;10.50;99.90
12374;DHT22;6251;51.762;8.660;2024-02-21T11:36:51;10.60;99.90
12374;DHT22;6251;51.762;8.660;2024-02-21T11:46:52;10.90;99.90
12374;DHT22;6251;51.762;8.660;2024-02-21T11:56:53;10.80;99.90
12374;DHT22;6251;51.762;8.660;2024-02-21T12:06:53;10.70;99.90
12374;DHT22;6251;51.762;8.660;2024-02-21T12:16:54;10.60;99.90
12374;DHT22;6251;51.762;8.660;2024-02-21T12:26:56;10.50;99.90
12374;DHT22;6251;51.762;8.660;2024-02-21T12:36:58;10.40;99.90
12374;DHT22;6251;51.762;8.660;2024-02-21T12:46:58;10.60;99.90
12374;DHT22;6251;51.762;8.660;2024-02-21T12:56:59;10.70;99.90
12374;DHT22;6251;51.762;8.660;2024-02-21T13:07:03;10.90;99.90
12374;DHT22;6251;51.762;8.660;2024-02-21T13:17:03;10.70;99.90
12374;DHT22;6251;51.762;8.660;2024-02-21T13:27:04;10.50;99.90
12374;DHT22;6251;51.762;8.660;2024-02-21T13:37:05;10.60;99.90
12374;DHT22;6251;51.762;8.660;2024-02-21T13:47:07;10.60;99.90
12374;DHT22;6251;51.762;8.660;2024-02-21T13:57:08;10.60;99.90
12374;DHT22;6251;51.762;8.660;2024-02-21T14:07:09;10.60;99.90
12374;DHT22;6251;51.762;8.660;2024-02-21T14:17:10;10.70;99.90
12374;DHT22;6251;51.762;8.660;2024-02-21T14:27:10;10.80;99.90
12374;DHT22;6251;51.762;8.660;2024-02-21T14:37:11;10.80;99.90
12374;DHT22;6251;51.762;8.660;2024-02-21T14:47:12;10.80;99.90
12374;DHT22;6251;51.762;8.660;2024-02-21T14:57:13;10.80;99.90
12374;DHT22;6251;51.762;8.660;2024-02-21T15:07:13;10.70;99.90
12374;DHT22;6251;51.762;8.660;2024-02-21T15:17:14;10.60;99.90
12374;DHT22;6251;51.762;8.660;2024-02-21T15:27:15;10.40;99.90
12374;DHT22;6251;51.762;8.660;2024-02-21T15:37:16;10.30;99.90
12374;DHT22;6251;51.762;8.660;2024-02-21T15:47:16;10.20;99.90
12374;DHT22;6251;51.762;8.660;2024-02-21T15:57:19;10.10;99.90
12374;DHT22;6251;51.762;8.660;2024-02-21T16:07:19;10.00;99.90
12374;DHT22;6251;51.762;8.660;2024-02-21T16:17:20;9.90;99.90
12374;DHT22;6251;51.762;8.660;2024-02-21T16:27:21;9.70;99.90
12374;DHT22;6251;51.762;8.660;2024-02-21T16:37:21;9.60;99.90
12374;DHT22;6251;51.762;8.660;2024-02-21T16:47:22;9.50;99.90
12374;DHT22;6251;51.762;8.660;2024-02-21T16:57:25;9.40;99.90
12374;DHT22;6251;51.762;8.660;2024-02-21T17:07:25;9.30;99.90
12374;DHT22;6251;51.762;8.660;2024-02-21T17:17:26;9.20;99.90
12374;DHT22;6251;51.762;8.660;2024-02-21T17:27:26;9.10;99.90
12374;DHT22;6251;51.762;8.660;2024-02-21T17:37:27;9.10;99.90
12374;DHT22;6251;51.762;8.660;2024-02-21T17:47:28;9.00;99.90
12374;DHT22;6251;51.762;8.660;2024-02-21T17:57:28;9.00;99.90
12374;DHT22;6251;51.762;8.660;2024-02-21T18:07:29;9.00;99.90
12374;DHT22;6251;51.762;8.660;2024-02-21T18:17:30;9.00;99.90
12374;DHT22;6251;51.762;8.660;2024-02-21T18:27:33;9.00;99.90
12374;DHT22;6251;51.762;8.660;2024-02-21T18:37:33;9.10;99.90
12374;DHT22;6251;51.762;8.660;2024-02-21T18:47:34;9.20;99.90
12374;DHT22;6251;51.762;8.660;2024-02-21T18:57:35;9.20;99.90
12374;DHT22;6251;51.762;8.660;2024-02-21T19:07:36;9.20;99.90
12374;DHT22;6251;51.762;8.660;2024-02-21T19:17:37;9.20;99.90
12374;DHT22;6251;51.762;8.660;2024-02-21T19:27:39;9.10;99.90
12374;DHT22;6251;51.762;8.660;2024-02-21T19:37:41;9.00;99.90
12374;DHT22;6251;51.762;8.660;2024-02-21T19:47:42;8.80;99.90
12374;DHT22;6251;51.762;8.660;2024-02-21T19:57:44;8.70;99.90
12374;DHT22;6251;51.762;8.660;2024-02-21T20:07:46;8.50;99.90
12374;DHT22;6251;51.762;8.660;2024-02-21T20:17:47;8.40;99.90
12374;DHT22;6251;51.762;8.660;2024-02-21T20:27:47;8.30;99.90
12374;DHT22;6251;51.762;8.660;2024-02-21T20:37:48;8.30;99.90
12374;DHT22;6251;51.762;8.660;2024-02-21T20:47:49;8.30;99.90
12374;DHT22;6251;51.762;8.660;2024-02-21T20:57:50;8.30;99.90
12374;DHT22;6251;51.762;8.660;2024-02-21T21:07:52;8.30;99.90
12374;DHT22;6251;51.762;8.660;2024-02-21T21:17:52;8.30;99.90
12374;DHT22;6251;51.762;8.660;2024-02-21T21:27:53;8.30;99.90
12374;DHT22;6251;51.762;8.660;2024-02-21T21:37:54;8.40;99.90
12374;DHT22;6251;51.762;8.660;2024-02-21T21:47:56;8.50;99.90
12374;DHT22;6251;51.762;8.660;2024-02-21T21:57:56;8.60;99.90
